createdAt,value
2023-07-16T00:02:22.095Z,6.40
2023-07-16T00:04:48.735Z,6.61
2023-07-16T00:07:15.273Z,6.71
2023-07-16T00:09:41.827Z,6.58
2023-07-16T00:12:08.431Z,6.71
2023-07-16T00:14:35.037Z,7.24
2023-07-16T00:17:01.641Z,6.54
2023-07-16T00:19:28.194Z,6.60
2023-07-16T00:21:54.724Z,6.33
2023-07-16T00:24:21.238Z,6.49
2023-07-16T00:26:47.730Z,6.56
2023-07-16T00:29:14.363Z,6.20
2023-07-16T00:31:40.868Z,6.47
2023-07-16T00:34:07.480Z,6.75
2023-07-16T00:36:34.055Z,6.40
2023-07-16T00:39:00.632Z,6.30
2023-07-16T00:41:27.201Z,6.42
2023-07-16T00:43:53.736Z,6.15
2023-07-16T00:46:20.440Z,6.53
2023-07-16T00:48:47.001Z,6.73
2023-07-16T00:51:13.699Z,6.41
2023-07-16T00:53:40.270Z,6.47
2023-07-16T00:56:06.853Z,6.48
2023-07-16T00:58:33.438Z,6.16
2023-07-16T01:01:00.046Z,6.15
2023-07-16T01:03:26.597Z,6.32
2023-07-16T01:05:53.181Z,6.06
2023-07-16T01:08:19.713Z,6.19
2023-07-16T01:10:46.194Z,5.84
2023-07-16T01:13:12.698Z,6.22
2023-07-16T01:15:39.213Z,6.14
2023-07-16T01:18:05.828Z,6.28
2023-07-16T01:20:32.379Z,6.03
2023-07-16T01:22:59.000Z,5.79
2023-07-16T01:25:25.540Z,5.98
2023-07-16T01:27:52.077Z,5.92
2023-07-16T01:30:18.616Z,6.05
2023-07-16T01:32:45.161Z,5.99
2023-07-16T01:35:11.733Z,6.22
2023-07-16T01:37:38.453Z,5.91
2023-07-16T01:40:04.919Z,5.90
2023-07-16T01:42:31.511Z,5.82
2023-07-16T01:44:58.089Z,5.63
2023-07-16T01:47:24.722Z,5.24
2023-07-16T01:49:51.257Z,5.75
2023-07-16T01:52:17.778Z,5.90
2023-07-16T01:54:44.329Z,6.03
2023-07-16T01:57:10.822Z,6.19
2023-07-16T01:59:37.404Z,5.93
2023-07-16T02:02:04.002Z,5.76
2023-07-16T02:04:30.521Z,5.32
2023-07-16T02:06:57.027Z,5.64
2023-07-16T02:09:23.636Z,5.65
2023-07-16T02:11:50.175Z,5.68
2023-07-16T02:14:16.638Z,5.51
2023-07-16T02:16:43.279Z,5.61
2023-07-16T02:19:09.929Z,5.32
2023-07-16T02:21:36.485Z,5.47
2023-07-16T02:24:02.981Z,5.40
2023-07-16T02:26:29.567Z,5.65
2023-07-16T02:28:56.157Z,5.31
2023-07-16T02:31:22.716Z,5.01
2023-07-16T02:33:49.208Z,5.48
2023-07-16T02:36:16.018Z,5.62
2023-07-16T02:38:42.771Z,5.26
2023-07-16T02:41:09.314Z,5.30
2023-07-16T02:43:35.857Z,5.36
2023-07-16T02:46:02.382Z,5.57
2023-07-16T02:48:29.013Z,5.29
2023-07-16T02:50:55.535Z,5.03
2023-07-16T02:53:22.049Z,4.96
2023-07-16T02:55:48.603Z,5.16
2023-07-16T02:58:15.166Z,5.11
2023-07-16T03:00:41.825Z,5.12
2023-07-16T03:03:08.489Z,5.01
2023-07-16T03:05:35.103Z,4.96
2023-07-16T03:08:01.702Z,5.13
2023-07-16T03:10:28.288Z,5.05
2023-07-16T03:12:54.881Z,4.82
2023-07-16T03:15:21.423Z,4.97
2023-07-16T03:17:48.026Z,4.77
2023-07-16T03:20:14.594Z,5.09
2023-07-16T03:22:41.164Z,4.78
2023-07-16T03:25:07.734Z,5.18
2023-07-16T03:27:34.211Z,4.97
2023-07-16T03:30:00.798Z,5.02
2023-07-16T03:32:31.808Z,4.87
2023-07-16T03:35:05.119Z,5.00
2023-07-16T03:37:31.647Z,5.12
2023-07-16T03:39:58.239Z,5.02
2023-07-16T03:42:24.732Z,4.74
2023-07-16T03:44:51.324Z,4.80
2023-07-16T03:47:17.903Z,4.95
2023-07-16T03:49:44.472Z,4.74
2023-07-16T03:52:11.003Z,5.10
2023-07-16T03:54:37.545Z,4.88
2023-07-16T03:57:04.108Z,4.66
2023-07-16T03:59:30.655Z,4.64
2023-07-16T04:01:57.288Z,4.42
2023-07-16T04:04:23.757Z,4.60
2023-07-16T04:06:50.309Z,4.85
2023-07-16T04:09:16.825Z,4.88
2023-07-16T04:11:43.432Z,4.73
2023-07-16T04:14:09.977Z,4.78
2023-07-16T04:16:36.572Z,4.61
2023-07-16T04:19:03.101Z,4.52
2023-07-16T04:21:29.625Z,4.37
2023-07-16T04:23:56.316Z,4.51
2023-07-16T04:26:22.798Z,4.48
2023-07-16T04:28:49.308Z,4.47
2023-07-16T04:31:15.974Z,4.78
2023-07-16T04:33:42.580Z,4.50
2023-07-16T04:36:09.079Z,4.71
2023-07-16T04:38:35.590Z,4.81
2023-07-16T04:41:02.114Z,4.27
2023-07-16T04:43:28.654Z,4.47
2023-07-16T04:45:55.143Z,4.34
2023-07-16T04:48:21.707Z,4.48
2023-07-16T04:50:48.244Z,4.63
2023-07-16T04:53:14.844Z,4.27
2023-07-16T04:55:41.405Z,4.28
2023-07-16T04:58:07.946Z,4.33
2023-07-16T05:00:34.485Z,4.49
2023-07-16T05:03:01.174Z,4.23
2023-07-16T05:05:27.746Z,4.29
2023-07-16T05:07:54.275Z,4.24
2023-07-16T05:10:20.866Z,4.37
2023-07-16T05:12:47.433Z,4.27
2023-07-16T05:15:14.040Z,4.32
2023-07-16T05:17:40.649Z,4.34
2023-07-16T05:20:07.254Z,4.18
2023-07-16T05:22:36.892Z,4.17
2023-07-16T05:25:03.512Z,4.29
2023-07-16T05:27:30.040Z,4.25
2023-07-16T05:29:56.565Z,4.01
2023-07-16T05:32:23.221Z,4.25
2023-07-16T05:34:49.819Z,4.17
2023-07-16T05:37:16.325Z,4.02
2023-07-16T05:39:42.914Z,3.93
2023-07-16T05:42:09.451Z,4.36
2023-07-16T05:44:36.005Z,4.14
2023-07-16T05:47:02.524Z,4.18
2023-07-16T05:49:29.069Z,4.34
2023-07-16T05:51:55.598Z,3.96
2023-07-16T05:54:22.142Z,3.95
2023-07-16T05:56:48.713Z,3.94
2023-07-16T05:59:15.354Z,3.98
2023-07-16T06:01:42.952Z,3.80
2023-07-16T06:04:09.656Z,3.72
2023-07-16T06:06:36.261Z,3.95
2023-07-16T06:09:02.851Z,4.00
2023-07-16T06:11:29.405Z,3.89
2023-07-16T06:13:55.892Z,4.00
2023-07-16T06:16:22.526Z,3.84
2023-07-16T06:18:49.192Z,3.79
2023-07-16T06:21:15.780Z,3.70
2023-07-16T06:23:42.303Z,3.89
2023-07-16T06:26:08.871Z,4.00
2023-07-16T06:28:35.429Z,3.86
2023-07-16T06:31:02.077Z,3.88
2023-07-16T06:33:28.695Z,3.96
2023-07-16T06:35:55.245Z,3.65
2023-07-16T06:38:21.817Z,3.77
2023-07-16T06:40:48.361Z,3.75
2023-07-16T06:43:14.893Z,3.95
2023-07-16T06:45:41.510Z,3.71
2023-07-16T06:48:08.057Z,3.62
2023-07-16T06:50:35.901Z,3.73
2023-07-16T06:53:02.469Z,3.59
2023-07-16T06:55:29.041Z,3.67
2023-07-16T06:57:55.571Z,3.71
2023-07-16T07:00:23.981Z,3.56
2023-07-16T07:02:50.923Z,3.54
2023-07-16T07:05:17.526Z,3.46
2023-07-16T07:07:44.100Z,3.71
2023-07-16T07:10:10.658Z,3.59
2023-07-16T07:12:37.213Z,3.76
2023-07-16T07:15:03.751Z,3.77
2023-07-16T07:17:30.268Z,3.69
2023-07-16T07:19:56.887Z,3.52
2023-07-16T07:22:23.552Z,3.77
2023-07-16T07:24:50.241Z,3.51
2023-07-16T07:27:16.778Z,3.45
2023-07-16T07:29:43.286Z,3.34
2023-07-16T07:32:09.824Z,3.34
2023-07-16T07:34:36.336Z,3.55
2023-07-16T07:37:02.959Z,3.53
2023-07-16T07:39:29.850Z,3.33
2023-07-16T07:41:56.392Z,3.26
2023-07-16T07:44:22.901Z,3.39
2023-07-16T07:46:49.549Z,3.44
2023-07-16T07:49:16.093Z,3.46
2023-07-16T07:51:42.748Z,3.23
2023-07-16T07:54:09.518Z,3.42
2023-07-16T07:56:36.130Z,3.59
2023-07-16T07:59:02.687Z,3.35
2023-07-16T08:01:29.212Z,3.48
2023-07-16T08:03:55.937Z,3.23
2023-07-16T08:06:22.488Z,3.08
2023-07-16T08:08:49.060Z,3.08
2023-07-16T08:11:15.636Z,3.07
2023-07-16T08:13:42.293Z,3.03
2023-07-16T08:16:08.818Z,2.97
2023-07-16T08:18:35.418Z,3.12
2023-07-16T08:21:01.975Z,3.01
2023-07-16T08:23:28.457Z,3.07
2023-07-16T08:25:55.015Z,2.79
2023-07-16T08:28:22.085Z,2.97
2023-07-16T08:30:48.639Z,3.02
2023-07-16T08:33:15.165Z,2.87
2023-07-16T08:35:41.726Z,2.88
2023-07-16T08:38:08.374Z,3.03
2023-07-16T08:40:34.970Z,2.83
2023-07-16T08:43:01.505Z,2.87
2023-07-16T08:45:28.035Z,3.02
2023-07-16T08:47:54.638Z,2.74
2023-07-16T08:50:21.194Z,2.94
2023-07-16T08:52:47.833Z,2.70
2023-07-16T08:55:14.347Z,2.80
2023-07-16T08:57:40.875Z,2.80
2023-07-16T09:00:07.456Z,2.65
2023-07-16T09:02:34.153Z,2.89
2023-07-16T09:05:01.463Z,2.83
2023-07-16T09:07:28.216Z,2.83
2023-07-16T09:09:54.846Z,3.02
2023-07-16T09:12:21.568Z,2.87
2023-07-16T09:14:48.217Z,2.91
2023-07-16T09:17:14.747Z,2.65
2023-07-16T09:19:41.284Z,2.67
2023-07-16T09:22:10.917Z,2.90
2023-07-16T09:24:37.474Z,2.99
2023-07-16T09:27:04.006Z,2.71
2023-07-16T09:29:30.575Z,2.82
2023-07-16T09:31:57.193Z,2.93
2023-07-16T09:34:23.821Z,2.94
2023-07-16T09:36:50.429Z,3.01
2023-07-16T09:39:16.989Z,2.85
2023-07-16T09:41:43.482Z,2.50
2023-07-16T09:44:10.029Z,2.60
2023-07-16T09:46:36.631Z,2.55
2023-07-16T09:49:03.135Z,2.66
2023-07-16T09:51:29.733Z,2.70
2023-07-16T09:53:56.337Z,2.55
2023-07-16T09:56:22.876Z,2.75
2023-07-16T09:58:49.393Z,2.85
2023-07-16T10:01:16.088Z,2.77
2023-07-16T10:03:42.689Z,2.50
2023-07-16T10:06:09.253Z,2.70
2023-07-16T10:08:35.792Z,2.71
2023-07-16T10:11:02.309Z,2.44
2023-07-16T10:13:28.856Z,2.62
2023-07-16T10:15:55.491Z,2.69
2023-07-16T10:18:22.349Z,2.49
2023-07-16T10:20:48.913Z,2.71
2023-07-16T10:23:15.490Z,2.65
2023-07-16T10:25:42.274Z,2.65
2023-07-16T10:28:08.820Z,2.60
2023-07-16T10:30:35.354Z,2.42
2023-07-16T10:33:01.946Z,2.52
2023-07-16T10:35:28.498Z,2.55
2023-07-16T10:37:55.097Z,2.60
2023-07-16T10:40:21.639Z,2.61
2023-07-16T10:42:48.232Z,2.53
2023-07-16T10:45:14.761Z,2.42
2023-07-16T10:47:41.274Z,2.61
2023-07-16T10:50:07.872Z,2.56
2023-07-16T10:52:34.427Z,2.47
2023-07-16T10:55:00.999Z,2.49
2023-07-16T10:57:27.640Z,2.66
2023-07-16T10:59:54.246Z,2.60
2023-07-16T11:02:20.835Z,2.49
2023-07-16T11:04:47.339Z,2.61
2023-07-16T11:07:13.892Z,2.39
2023-07-16T11:09:40.482Z,2.55
2023-07-16T11:12:07.013Z,2.39
2023-07-16T11:14:33.551Z,2.45
2023-07-16T11:17:00.076Z,2.54
2023-07-16T11:19:26.617Z,2.44
2023-07-16T11:21:53.187Z,2.43
2023-07-16T11:24:19.775Z,2.46
2023-07-16T11:26:46.293Z,2.55
2023-07-16T11:29:12.857Z,2.51
2023-07-16T11:31:39.507Z,2.43
2023-07-16T11:34:06.066Z,2.31
2023-07-16T11:36:32.569Z,2.23
2023-07-16T11:38:59.149Z,2.61
2023-07-16T11:41:25.691Z,2.43
2023-07-16T11:43:52.268Z,2.50
2023-07-16T11:46:19.429Z,2.44
2023-07-16T11:48:46.250Z,2.55
2023-07-16T11:51:12.767Z,2.75
2023-07-16T11:53:40.161Z,2.30
2023-07-16T11:56:07.039Z,2.35
2023-07-16T11:58:33.597Z,2.54
2023-07-16T12:01:00.233Z,2.50
2023-07-16T12:03:27.046Z,2.36
2023-07-16T12:05:54.503Z,2.33
2023-07-16T12:08:21.155Z,2.39
2023-07-16T12:10:47.692Z,2.41
2023-07-16T12:13:14.210Z,2.39
2023-07-16T12:15:40.775Z,2.31
2023-07-16T12:18:07.393Z,2.23
2023-07-16T12:20:33.965Z,2.40
2023-07-16T12:23:00.537Z,2.34
2023-07-16T12:25:27.073Z,2.38
2023-07-16T12:27:56.036Z,2.27
2023-07-16T12:30:22.915Z,2.40
2023-07-16T12:32:49.571Z,2.26
2023-07-16T12:35:16.120Z,2.38
2023-07-16T12:37:42.694Z,2.27
2023-07-16T12:40:09.257Z,2.17
2023-07-16T12:42:35.799Z,2.31
2023-07-16T12:45:02.322Z,2.23
2023-07-16T12:47:28.855Z,2.16
2023-07-16T12:49:55.453Z,2.14
2023-07-16T12:52:21.977Z,2.29
2023-07-16T12:54:48.558Z,2.28
2023-07-16T12:57:15.046Z,2.15
2023-07-16T12:59:41.599Z,2.66
2023-07-16T13:02:08.174Z,3.39
2023-07-16T13:04:34.766Z,3.97
2023-07-16T13:07:01.355Z,4.18
2023-07-16T13:09:27.966Z,4.70
2023-07-16T13:11:54.472Z,4.93
2023-07-16T13:14:21.024Z,5.43
2023-07-16T13:16:47.636Z,5.20
2023-07-16T13:19:14.214Z,5.85
2023-07-16T13:21:40.779Z,5.58
2023-07-16T13:24:07.360Z,5.37
2023-07-16T13:26:33.947Z,5.63
2023-07-16T13:29:00.527Z,5.56
2023-07-16T13:31:27.272Z,5.67
2023-07-16T13:33:53.930Z,5.26
2023-07-16T13:36:20.498Z,4.91
2023-07-16T13:38:47.115Z,4.99
2023-07-16T13:41:13.738Z,4.86
2023-07-16T13:43:40.337Z,4.75
2023-07-16T13:46:06.987Z,4.70
2023-07-16T13:48:44.126Z,4.87
2023-07-16T13:51:20.129Z,4.37
2023-07-16T13:53:46.702Z,4.54
2023-07-16T13:56:13.366Z,4.31
2023-07-16T13:58:40.051Z,4.28
2023-07-16T14:01:06.624Z,4.13
2023-07-16T14:03:33.256Z,4.45
2023-07-16T14:05:59.853Z,4.41
2023-07-16T14:08:26.452Z,4.50
2023-07-16T14:10:52.989Z,4.04
2023-07-16T14:13:19.597Z,4.10
2023-07-16T14:15:46.179Z,4.29
2023-07-16T14:18:12.741Z,4.16
2023-07-16T14:20:39.496Z,4.40
2023-07-16T14:23:06.097Z,4.22
2023-07-16T14:25:32.676Z,4.10
2023-07-16T14:27:59.240Z,4.15
2023-07-16T14:30:25.747Z,3.85
2023-07-16T14:32:52.350Z,4.10
2023-07-16T14:35:30.774Z,3.65
2023-07-16T14:38:03.366Z,3.89
2023-07-16T14:40:30.967Z,3.75
2023-07-16T14:42:57.533Z,3.55
2023-07-16T14:45:24.077Z,3.53
2023-07-16T14:47:50.656Z,3.55
2023-07-16T14:50:17.272Z,3.54
2023-07-16T14:52:43.864Z,3.64
2023-07-16T14:55:10.391Z,3.49
2023-07-16T14:57:36.919Z,3.47
2023-07-16T15:00:04.291Z,3.40
2023-07-16T15:02:30.864Z,3.34
2023-07-16T15:04:57.437Z,3.40
2023-07-16T15:07:24.023Z,3.52
2023-07-16T15:09:50.575Z,3.51
2023-07-16T15:12:17.122Z,3.34
2023-07-16T15:14:43.796Z,3.07
2023-07-16T15:17:10.359Z,3.47
2023-07-16T15:19:36.937Z,3.23
2023-07-16T15:22:03.511Z,3.35
2023-07-16T15:24:30.034Z,3.44
2023-07-16T15:26:56.556Z,3.25
2023-07-16T15:29:23.079Z,3.09
2023-07-16T15:31:49.636Z,3.24
2023-07-16T15:34:16.199Z,3.11
2023-07-16T15:36:42.784Z,3.35
2023-07-16T15:39:09.364Z,3.05
2023-07-16T15:41:35.898Z,3.12
2023-07-16T15:44:02.468Z,3.07
2023-07-16T15:48:54.971Z,2.96
2023-07-16T15:51:21.640Z,3.05
2023-07-16T15:53:48.177Z,3.12
2023-07-16T15:56:15.011Z,3.16
2023-07-16T15:58:41.833Z,2.81
2023-07-16T16:01:08.430Z,3.00
2023-07-16T16:03:35.077Z,3.13
2023-07-16T16:06:01.733Z,3.07
2023-07-16T16:08:28.298Z,3.07
2023-07-16T16:10:54.852Z,2.90
2023-07-16T16:13:21.443Z,2.99
2023-07-16T16:15:48.042Z,3.02
2023-07-16T16:18:14.738Z,2.99
2023-07-16T16:20:41.318Z,2.76
2023-07-16T16:23:08.136Z,2.86
2023-07-16T16:25:37.815Z,2.79
2023-07-16T16:28:04.792Z,2.91
2023-07-16T16:30:31.314Z,2.88
2023-07-16T16:33:00.079Z,2.97
2023-07-16T16:35:28.365Z,2.99
2023-07-16T16:37:54.909Z,2.73
2023-07-16T16:40:21.479Z,3.01
2023-07-16T16:42:47.961Z,2.72
2023-07-16T16:45:14.492Z,2.88
2023-07-16T16:47:41.221Z,2.76
2023-07-16T16:50:07.924Z,2.84
2023-07-16T16:52:34.498Z,2.73
2023-07-16T16:55:01.015Z,2.95
2023-07-16T16:57:27.551Z,2.79
2023-07-16T16:59:54.074Z,2.73
2023-07-16T17:02:20.641Z,2.85
2023-07-16T17:04:47.332Z,2.84
2023-07-16T17:07:13.978Z,2.55
2023-07-16T17:09:40.532Z,2.52
2023-07-16T17:12:07.067Z,2.90
2023-07-16T17:14:33.639Z,2.67
2023-07-16T17:17:00.301Z,2.85
2023-07-16T17:19:26.900Z,2.86
2023-07-16T17:21:53.421Z,2.60
2023-07-16T17:24:19.915Z,2.60
2023-07-16T17:26:46.423Z,2.75
2023-07-16T17:29:13.015Z,2.73
2023-07-16T17:31:39.684Z,2.79
2023-07-16T17:34:06.332Z,2.74
2023-07-16T17:36:32.948Z,2.55
2023-07-16T17:38:59.514Z,2.75
2023-07-16T17:41:26.055Z,2.41
2023-07-16T17:43:52.690Z,2.79
2023-07-16T17:46:19.519Z,2.80
2023-07-16T17:48:46.399Z,2.72
2023-07-16T17:51:12.983Z,2.62
2023-07-16T17:53:39.525Z,2.80
2023-07-16T17:56:06.104Z,2.79
2023-07-16T17:58:32.668Z,2.56
2023-07-16T18:00:59.410Z,2.60
2023-07-16T18:03:26.357Z,2.50
2023-07-16T18:05:53.111Z,2.86
2023-07-16T18:08:22.450Z,2.61
2023-07-16T18:10:49.469Z,2.78
2023-07-16T18:13:16.078Z,2.80
2023-07-16T18:15:42.702Z,2.51
2023-07-16T18:18:09.268Z,2.69
2023-07-16T18:20:36.287Z,2.54
2023-07-16T18:23:03.317Z,2.65
2023-07-16T18:25:29.887Z,2.67
2023-07-16T18:27:56.369Z,2.71
2023-07-16T18:30:22.984Z,2.80
2023-07-16T18:32:49.576Z,2.76
2023-07-16T18:35:16.165Z,2.90
2023-07-16T18:37:42.766Z,2.68
2023-07-16T18:40:09.360Z,2.82
2023-07-16T18:42:35.968Z,2.57
2023-07-16T18:45:02.594Z,2.66
2023-07-16T18:47:29.207Z,2.73
2023-07-16T18:49:55.768Z,2.90
2023-07-16T18:52:22.400Z,3.19
2023-07-16T18:54:49.079Z,3.31
2023-07-16T18:57:15.596Z,3.25
2023-07-16T18:59:42.165Z,3.04
2023-07-16T19:02:08.738Z,3.47
2023-07-16T19:04:35.359Z,3.51
2023-07-16T19:07:01.973Z,3.61
2023-07-16T19:09:28.525Z,3.67
2023-07-16T19:11:55.087Z,3.13
2023-07-16T19:14:21.672Z,3.12
2023-07-16T19:16:48.251Z,3.06
2023-07-16T19:19:14.838Z,3.21
2023-07-16T19:21:41.497Z,3.23
2023-07-16T19:24:08.075Z,3.12
2023-07-16T19:26:34.689Z,3.22
2023-07-16T19:29:01.222Z,3.17
2023-07-16T19:31:27.801Z,3.22
2023-07-16T19:33:54.505Z,3.09
2023-07-16T19:36:21.519Z,3.06
2023-07-16T19:38:48.246Z,3.25
2023-07-16T19:41:14.925Z,3.28
2023-07-16T19:43:41.529Z,3.34
2023-07-16T19:46:08.095Z,3.25
2023-07-16T19:48:34.808Z,3.41
2023-07-16T19:51:01.493Z,3.30
2023-07-16T19:53:28.035Z,3.20
2023-07-16T19:55:54.665Z,3.45
2023-07-16T19:58:21.214Z,3.14
2023-07-16T20:00:47.907Z,3.06
2023-07-16T20:03:14.497Z,3.07
2023-07-16T20:05:41.214Z,3.09
2023-07-16T20:08:07.819Z,3.22
2023-07-16T20:10:34.384Z,2.93
2023-07-16T20:13:00.958Z,3.12
2023-07-16T20:15:27.465Z,3.26
2023-07-16T20:17:54.096Z,3.12
2023-07-16T20:20:20.688Z,3.30
2023-07-16T20:22:47.315Z,3.24
2023-07-16T20:25:13.881Z,3.07
2023-07-16T20:27:40.481Z,3.09
2023-07-16T20:30:07.085Z,3.10
2023-07-16T20:32:33.943Z,3.29
2023-07-16T20:35:00.527Z,3.13
2023-07-16T20:37:27.141Z,3.21
2023-07-16T20:39:53.751Z,2.92
2023-07-16T20:42:20.320Z,2.93
2023-07-16T20:44:46.885Z,3.30
2023-07-16T20:47:13.483Z,3.09
2023-07-16T20:49:40.052Z,3.21
2023-07-16T20:52:06.644Z,3.15
2023-07-16T20:54:33.174Z,2.99
2023-07-16T20:56:59.723Z,2.96
2023-07-16T20:59:26.296Z,2.98
2023-07-16T21:01:52.863Z,2.89
2023-07-16T21:04:19.490Z,2.79
2023-07-16T21:06:46.114Z,2.85
2023-07-16T21:09:12.772Z,2.89
2023-07-16T21:11:39.344Z,2.97
2023-07-16T21:14:05.900Z,2.82
2023-07-16T21:16:32.520Z,2.81
2023-07-16T21:18:59.139Z,3.09
2023-07-16T21:21:25.759Z,2.85
2023-07-16T21:23:52.357Z,2.79
2023-07-16T21:26:18.929Z,2.95
2023-07-16T21:28:45.490Z,3.07
2023-07-16T21:31:12.199Z,2.98
2023-07-16T21:33:38.823Z,2.87
2023-07-16T21:36:05.512Z,2.95
2023-07-16T21:38:32.053Z,2.89
2023-07-16T21:40:58.672Z,2.89
2023-07-16T21:43:25.241Z,2.92
2023-07-16T21:45:51.789Z,3.14
2023-07-16T21:48:18.326Z,2.85
2023-07-16T21:50:44.909Z,2.81
2023-07-16T21:53:11.514Z,3.01
2023-07-16T21:55:38.094Z,2.81
2023-07-16T21:58:04.628Z,2.73
2023-07-16T22:00:31.105Z,2.89
2023-07-16T22:02:57.662Z,2.74
2023-07-16T22:05:24.306Z,2.87
2023-07-16T22:07:50.906Z,2.93
2023-07-16T22:10:17.496Z,2.82
2023-07-16T22:12:43.988Z,2.93
2023-07-16T22:15:10.531Z,2.89
2023-07-16T22:17:37.134Z,2.68
2023-07-16T22:20:03.750Z,2.70
2023-07-16T22:22:30.320Z,2.82
2023-07-16T22:24:56.872Z,2.73
2023-07-16T22:27:23.514Z,2.56
2023-07-16T22:29:50.093Z,2.69
2023-07-16T22:32:16.729Z,2.79
2023-07-16T22:34:43.303Z,2.85
2023-07-16T22:37:09.894Z,2.39
2023-07-16T22:39:36.431Z,2.67
2023-07-16T22:42:02.976Z,2.64
2023-07-16T22:44:29.466Z,2.56
2023-07-16T22:46:56.075Z,2.71
2023-07-16T22:49:22.733Z,2.64
2023-07-16T22:51:49.298Z,2.63
2023-07-16T22:54:15.821Z,2.67
2023-07-16T22:56:42.338Z,2.64
2023-07-16T22:59:08.943Z,2.60
2023-07-16T23:01:35.500Z,2.62
2023-07-16T23:04:02.128Z,2.52
2023-07-16T23:06:28.689Z,2.52
2023-07-16T23:08:55.223Z,2.41
2023-07-16T23:11:21.812Z,2.54
2023-07-16T23:13:48.378Z,2.73
2023-07-16T23:16:15.034Z,2.61
2023-07-16T23:18:41.659Z,2.58
2023-07-16T23:21:08.398Z,2.57
2023-07-16T23:23:35.218Z,2.58
2023-07-16T23:26:01.803Z,2.59
2023-07-16T23:28:28.322Z,2.74
2023-07-16T23:30:54.935Z,2.63
2023-07-16T23:33:21.606Z,2.44
2023-07-16T23:35:48.289Z,2.49
2023-07-16T23:38:14.893Z,2.61
2023-07-16T23:40:41.423Z,2.71
2023-07-16T23:43:07.998Z,2.49
2023-07-16T23:45:34.509Z,2.58
2023-07-16T23:48:01.064Z,2.58
2023-07-16T23:50:27.682Z,2.66
2023-07-16T23:52:54.238Z,2.50
2023-07-16T23:55:20.798Z,2.52
2023-07-16T23:57:47.413Z,2.67
